Time;durP1;ratioP1;P1;durP2;ratioP2;P2;SDS_P1;SDS_P2;PMS_P1;PMS_P2;Temp;Humidity;BMP_temperature;BMP_pressure;BME280_temperature;BME280_humidity;BME280_pressure;Samples;Min_cycle;Max_cycle;Signal;HPM_P1;HPM_P2
2022/07/18 00:00:05;;;;;;;5.88;2.95;;;;;;;16.00;63.57;102305.06;5013854;28;20021;-73
2022/07/18 00:02:31;;;;;;;7.63;4.22;;;;;;;15.62;65.35;102295.34;5030536;28;20376;-72
2022/07/18 00:04:56;;;;;;;7.18;3.67;;;;;;;15.77;64.99;102293.75;5031706;28;20044;-73
2022/07/18 00:07:21;;;;;;;6.85;3.85;;;;;;;15.79;65.39;102290.88;5031589;28;20028;-73
2022/07/18 00:09:47;;;;;;;7.25;4.05;;;;;;;15.84;64.81;102283.91;5031431;28;20493;-74
2022/07/18 00:12:12;;;;;;;7.28;3.88;;;;;;;16.00;63.97;102273.13;5031601;28;20025;-73
2022/07/18 00:14:38;;;;;;;6.97;3.53;;;;;;;15.94;64.06;102276.50;5014304;28;20035;-73
2022/07/18 00:17:04;;;;;;;6.72;3.28;;;;;;;15.84;64.33;102267.53;5014524;28;20029;-73
2022/07/18 00:19:30;;;;;;;10.23;3.92;;;;;;;15.89;63.48;102267.91;5031988;28;20029;-72
2022/07/18 00:21:56;;;;;;;6.70;3.78;;;;;;;16.02;63.16;102268.34;5014031;28;20025;-73
2022/07/18 00:24:21;;;;;;;8.18;4.00;;;;;;;16.01;63.19;102268.50;5033639;28;20036;-73
2022/07/18 00:26:46;;;;;;;8.40;3.85;;;;;;;16.06;63.21;102259.84;5017751;28;20028;-73
2022/07/18 00:29:12;;;;;;;11.23;3.95;;;;;;;16.15;62.77;102269.81;5017911;28;20075;-73
2022/07/18 00:31:38;;;;;;;6.07;3.60;;;;;;;16.18;62.81;102269.50;5017576;28;20033;-74
2022/07/18 00:34:04;;;;;;;10.13;4.18;;;;;;;16.14;62.95;102268.09;5034804;28;20502;-73
2022/07/18 00:36:30;;;;;;;8.68;4.13;;;;;;;16.17;63.05;102268.63;5034977;28;20029;-74
2022/07/18 00:38:56;;;;;;;5.55;3.40;;;;;;;16.18;62.89;102264.03;5034467;28;20451;-73
2022/07/18 00:41:22;;;;;;;8.65;3.30;;;;;;;15.98;63.43;102252.47;5033952;28;20208;-73
2022/07/18 00:43:48;;;;;;;10.50;4.00;;;;;;;15.97;64.13;102257.06;5035088;28;20025;-73
2022/07/18 00:46:13;;;;;;;7.97;3.30;;;;;;;16.06;63.36;102260.69;5033840;28;20060;-73
2022/07/18 00:48:41;;;;;;;5.53;3.65;;;;;;;16.12;63.14;102264.69;5017497;28;20025;-73
2022/07/18 00:51:07;;;;;;;7.47;4.30;;;;;;;16.06;63.58;102255.25;5033690;28;20025;-73
2022/07/18 00:53:33;;;;;;;8.63;3.78;;;;;;;16.10;63.09;102255.75;5017788;28;20073;-72
2022/07/18 00:55:59;;;;;;;8.27;4.55;;;;;;;15.97;63.58;102268.00;5017575;28;20156;-73
2022/07/18 00:58:25;;;;;;;6.90;4.07;;;;;;;15.80;63.98;102274.34;5033835;28;20111;-74
2022/07/18 01:03:34;;;;;;;5.97;3.58;;;;;;;15.89;64.30;102265.19;5034934;28;20067;-73
2022/07/18 01:05:59;;;;;;;7.38;4.30;;;;;;;15.85;64.81;102254.75;5017293;28;20404;-75
2022/07/18 01:08:25;;;;;;;8.52;4.13;;;;;;;15.85;65.15;102262.94;5016859;28;20104;-73
2022/07/18 01:10:51;;;;;;;7.32;3.97;;;;;;;15.78;64.87;102262.72;5034402;28;20052;-73
2022/07/18 01:13:17;;;;;;;8.77;4.20;;;;;;;15.88;64.44;102266.19;5017307;28;20069;-73
2022/07/18 01:15:43;;;;;;;8.48;3.75;;;;;;;15.81;65.26;102267.84;5033488;28;20036;-73
2022/07/18 01:18:08;;;;;;;6.68;3.72;;;;;;;15.76;65.28;102274.81;5033700;28;20087;-74
2022/07/18 01:20:33;;;;;;;7.03;3.75;;;;;;;15.70;65.20;102270.81;5034811;28;20018;-74
2022/07/18 01:22:59;;;;;;;15.10;3.97;;;;;;;15.77;65.57;102277.38;5016859;28;20090;-73
2022/07/18 01:25:25;;;;;;;12.43;4.20;;;;;;;15.73;65.73;102270.53;5034554;28;20037;-73
2022/07/18 01:27:51;;;;;;;7.30;4.07;;;;;;;15.59;66.44;102268.31;5034477;28;20028;-73
2022/07/18 01:30:16;;;;;;;9.13;4.65;;;;;;;15.70;66.05;102270.81;5032973;28;20029;-73
2022/07/18 01:32:42;;;;;;;6.63;3.53;;;;;;;15.74;66.32;102273.09;5016921;28;20033;-73
2022/07/18 01:35:08;;;;;;;8.52;4.38;;;;;;;15.66;66.52;102269.44;5015557;28;20061;-73
2022/07/18 01:37:33;;;;;;;7.65;3.80;;;;;;;15.63;66.76;102269.75;5034317;28;20080;-73
2022/07/18 01:39:59;;;;;;;8.95;4.38;;;;;;;15.71;66.27;102261.59;5016739;28;20057;-73
2022/07/18 01:42:24;;;;;;;7.20;4.05;;;;;;;15.66;66.50;102255.78;5034125;28;20366;-73
2022/07/18 01:44:49;;;;;;;8.10;4.38;;;;;;;15.56;67.06;102252.25;5034034;28;20029;-73
2022/07/18 01:47:16;;;;;;;9.63;4.10;;;;;;;15.51;67.34;102260.03;5016452;28;20032;-73
2022/07/18 01:49:42;;;;;;;6.63;4.22;;;;;;;15.34;68.07;102251.72;5032756;28;20072;-73
2022/07/18 01:52:09;;;;;;;7.18;4.55;;;;;;;15.19;69.11;102253.25;5032779;28;20079;-73
2022/07/18 01:54:35;;;;;;;7.35;3.83;;;;;;;15.33;69.15;102262.78;5034328;28;20057;-73
2022/07/18 01:57:02;;;;;;;8.02;4.57;;;;;;;15.37;68.75;102254.13;5033272;28;20029;-73
2022/07/18 01:59:28;;;;;;;10.77;4.22;;;;;;;15.45;68.75;102256.94;5032968;28;20479;-73
2022/07/18 02:01:53;;;;;;;7.38;4.25;;;;;;;15.38;68.12;102258.56;5034079;28;20032;-74
2022/07/18 02:04:19;;;;;;;7.57;3.55;;;;;;;15.42;68.13;102251.78;5016663;28;20090;-73
2022/07/18 02:06:44;;;;;;;9.77;4.43;;;;;;;15.03;69.89;102255.81;5032707;28;20021;-72
2022/07/18 02:09:10;;;;;;;13.52;5.20;;;;;;;15.24;69.16;102259.09;5033974;28;20223;-73
2022/07/18 02:11:36;;;;;;;6.45;4.00;;;;;;;15.36;68.85;102251.53;5016126;28;20060;-73
2022/07/18 02:14:02;;;;;;;10.00;4.90;;;;;;;15.28;69.36;102238.69;5034140;28;20026;-73
2022/07/18 02:16:28;;;;;;;10.73;4.10;;;;;;;15.30;69.77;102242.09;5015968;28;20031;-73
2022/07/18 02:18:54;;;;;;;11.70;4.85;;;;;;;15.05;70.14;102242.88;5016040;28;20033;-73
2022/07/18 02:21:20;;;;;;;8.35;4.68;;;;;;;15.00;70.91;102237.03;5016079;28;20021;-73
2022/07/18 02:23:45;;;;;;;8.43;4.50;;;;;;;15.24;69.98;102240.00;5033118;28;20025;-73
2022/07/18 02:26:11;;;;;;;7.85;4.70;;;;;;;15.33;69.38;102244.53;5015744;28;20032;-73
2022/07/18 02:28:37;;;;;;;8.93;4.00;;;;;;;15.33;69.04;102241.81;5015865;28;20037;-73
2022/07/18 02:31:04;;;;;;;8.45;3.50;;;;;;;15.22;69.89;102235.72;5015430;28;20018;-73
2022/07/18 02:33:30;;;;;;;7.43;4.60;;;;;;;15.15;70.29;102235.50;5033654;28;20057;-73
2022/07/18 02:35:56;;;;;;;8.50;4.07;;;;;;;15.19;70.49;102228.69;5015707;28;20029;-74
2022/07/18 02:38:21;;;;;;;6.60;4.28;;;;;;;15.11;71.28;102225.88;5033134;28;20033;-73
2022/07/18 02:40:46;;;;;;;14.02;5.45;;;;;;;15.18;70.85;102222.38;5016132;28;20030;-74
2022/07/18 02:43:12;;;;;;;9.65;4.75;;;;;;;15.28;70.65;102222.31;5033283;28;20029;-74
2022/07/18 02:45:37;;;;;;;10.57;4.68;;;;;;;15.24;70.74;102220.91;5032458;28;20029;-73
2022/07/18 02:48:03;;;;;;;10.82;4.82;;;;;;;15.20;71.19;102230.44;5015475;28;20025;-73
2022/07/18 02:50:29;;;;;;;7.97;4.95;;;;;;;15.04;72.08;102232.97;5014952;28;20026;-73
2022/07/18 02:52:56;;;;;;;8.18;4.75;;;;;;;15.21;71.39;102223.94;5015181;28;20483;-73
2022/07/18 02:55:22;;;;;;;8.15;4.75;;;;;;;15.23;71.80;102234.72;5015463;28;20075;-73
2022/07/18 02:57:48;;;;;;;9.93;4.95;;;;;;;15.20;71.52;102225.81;5015284;28;20078;-72
2022/07/18 03:00:14;;;;;;;9.10;5.05;;;;;;;15.21;71.70;102232.13;5032527;28;20021;-73
2022/07/18 03:02:41;;;;;;;9.63;4.30;;;;;;;15.18;71.98;102237.88;5031387;28;20104;-73
2022/07/18 03:05:07;;;;;;;14.82;4.88;;;;;;;15.30;71.79;102242.09;5032729;28;20028;-74
2022/07/18 03:07:32;;;;;;;12.63;5.03;;;;;;;15.26;71.48;102240.72;5015053;28;20017;-74
2022/07/18 03:09:58;;;;;;;11.38;5.13;;;;;;;15.25;71.59;102233.53;5015597;28;20060;-73
2022/07/18 03:12:23;;;;;;;14.70;5.55;;;;;;;15.19;72.41;102228.69;5014543;28;20036;-73
2022/07/18 03:14:49;;;;;;;9.98;5.35;;;;;;;15.07;72.68;102229.97;5015434;28;20021;-74
2022/07/18 03:17:14;;;;;;;8.30;5.07;;;;;;;15.10;72.93;102233.22;5032610;28;20055;-73
2022/07/18 03:19:40;;;;;;;7.85;4.90;;;;;;;15.11;72.80;102231.34;5032678;28;20074;-73
2022/07/18 03:22:06;;;;;;;6.22;4.38;;;;;;;15.16;72.60;102227.13;5015057;28;20036;-74
2022/07/18 03:24:32;;;;;;;8.45;5.40;;;;;;;15.30;72.33;102236.66;5032529;28;20045;-74
2022/07/18 03:26:57;;;;;;;8.98;5.05;;;;;;;15.38;71.45;102238.59;5031413;28;20110;-73
2022/07/18 03:29:23;;;;;;;12.85;5.28;;;;;;;15.28;72.23;102233.22;5015101;28;20036;-73
2022/07/18 03:31:48;;;;;;;10.70;4.97;;;;;;;15.25;72.60;102228.06;5030817;28;20029;-74
2022/07/18 03:34:14;;;;;;;12.02;5.60;;;;;;;15.16;72.98;102223.56;5030785;28;20032;-73
2022/07/18 03:36:39;;;;;;;8.32;5.30;;;;;;;15.24;72.64;102226.34;5014051;28;20035;-74
2022/07/18 03:39:06;;;;;;;8.32;4.55;;;;;;;15.13;73.89;102223.88;5015273;28;20033;-73
2022/07/18 03:41:31;;;;;;;9.95;4.88;;;;;;;15.29;72.99;102224.03;5014812;28;20422;-72
2022/07/18 03:43:57;;;;;;;9.88;5.93;;;;;;;15.18;73.65;102211.47;5014328;28;20029;-73
2022/07/18 03:46:22;;;;;;;8.88;5.68;;;;;;;14.97;74.70;102197.28;5015336;28;20025;-73
2022/07/18 03:48:48;;;;;;;14.35;6.60;;;;;;;14.94;74.66;102197.59;5032015;28;20079;-73
2022/07/18 03:51:13;;;;;;;13.23;6.50;;;;;;;14.69;75.78;102193.75;5031961;28;20025;-74
2022/07/18 03:53:39;;;;;;;10.93;6.95;;;;;;;14.65;76.66;102200.50;5014734;28;20100;-74
2022/07/18 03:56:04;;;;;;;12.00;7.30;;;;;;;14.74;76.51;102207.78;5014510;28;20021;-74
2022/07/18 03:58:29;;;;;;;11.15;6.55;;;;;;;14.86;75.80;102211.97;5014124;28;20025;-73
2022/07/18 04:00:55;;;;;;;14.00;6.88;;;;;;;14.78;76.06;102214.63;5014757;28;20018;-72
2022/07/18 04:03:20;;;;;;;12.20;5.97;;;;;;;14.94;75.79;102208.50;5031910;28;20067;-74
2022/07/18 04:05:46;;;;;;;11.27;6.20;;;;;;;15.13;74.97;102202.06;5014318;28;20417;-73
2022/07/18 04:08:12;;;;;;;10.05;5.50;;;;;;;15.37;73.52;102215.91;5014270;28;20073;-73
2022/07/18 04:10:39;;;;;;;10.05;5.50;;;;;;;15.42;73.19;102221.75;5031595;28;20049;-73
2022/07/18 04:13:06;;;;;;;8.30;5.72;;;;;;;15.43;73.36;102219.88;5014246;28;20028;-73
2022/07/18 04:15:31;;;;;;;8.80;5.30;;;;;;;15.47;73.07;102215.84;5030475;28;20094;-73
2022/07/18 04:17:57;;;;;;;14.02;5.68;;;;;;;15.36;73.46;102218.78;5031983;28;20029;-73
2022/07/18 04:20:22;;;;;;;12.68;5.82;;;;;;;15.53;72.96;102211.63;5014555;28;20033;-72
2022/07/18 04:22:55;;;;;;;12.90;5.90;;;;;;;15.62;72.59;102207.97;5032243;28;20032;-73
2022/07/18 04:25:24;;;;;;;13.85;6.15;;;;;;;15.38;73.29;102201.25;5014716;28;20025;-73
2022/07/18 04:27:50;;;;;;;13.90;5.95;;;;;;;15.31;73.79;102200.16;5031808;28;20132;-73
2022/07/18 04:30:19;;;;;;;16.10;6.40;;;;;;;15.25;73.72;102200.78;5031852;28;20044;-73
2022/07/18 04:32:45;;;;;;;10.25;5.90;;;;;;;15.27;73.78;102198.78;5031887;28;20032;-73
2022/07/18 04:35:11;;;;;;;11.35;5.95;;;;;;;15.37;73.32;102204.97;5031587;28;20089;-74
2022/07/18 04:37:37;;;;;;;12.65;5.80;;;;;;;15.20;73.22;102197.69;5030684;28;20028;-74
2022/07/18 04:40:04;;;;;;;11.63;5.43;;;;;;;15.27;73.64;102204.22;5031560;28;20426;-74
2022/07/18 04:42:30;;;;;;;9.23;5.65;;;;;;;15.39;73.07;102192.06;5013948;28;20017;-74
2022/07/18 04:44:57;;;;;;;9.02;6.07;;;;;;;15.26;73.65;102191.59;5014175;28;20029;-74
2022/07/18 04:47:23;;;;;;;8.93;5.90;;;;;;;15.21;73.66;102193.94;5013779;28;20037;-73
2022/07/18 04:49:48;;;;;;;9.98;6.18;;;;;;;15.17;73.80;102192.53;5030966;28;20031;-74
2022/07/18 04:52:13;;;;;;;8.93;5.80;;;;;;;15.10;74.24;102194.16;5031046;28;20060;-73
2022/07/18 04:54:39;;;;;;;10.00;6.00;;;;;;;15.25;73.50;102195.31;5014108;28;20104;-74
2022/07/18 04:57:04;;;;;;;12.77;5.68;;;;;;;15.51;72.77;102195.38;5030113;28;20017;-74
2022/07/18 04:59:29;;;;;;;12.18;6.07;;;;;;;15.53;72.60;102193.38;5013667;28;20060;-73
2022/07/18 05:01:55;;;;;;;10.40;6.13;;;;;;;15.69;71.88;102184.47;5031274;28;20036;-73
2022/07/18 05:04:20;;;;;;;12.27;6.10;;;;;;;15.71;71.12;102190.59;5013479;28;20029;-74
2022/07/18 05:06:45;;;;;;;13.73;6.28;;;;;;;15.70;71.75;102188.91;5030177;28;20048;-74
2022/07/18 05:09:10;;;;;;;9.70;5.53;;;;;;;15.92;71.10;102193.84;5013520;28;20112;-73
2022/07/18 05:11:36;;;;;;;9.85;5.93;;;;;;;15.88;70.76;102186.97;5016770;28;20025;-74
2022/07/18 05:14:01;;;;;;;11.02;5.38;;;;;;;15.84;70.93;102185.56;5017489;28;20029;-74
2022/07/18 05:16:27;;;;;;;11.25;5.25;;;;;;;16.04;70.13;102174.44;5016723;28;20124;-74
2022/07/18 05:18:52;;;;;;;12.32;5.88;;;;;;;15.88;69.99;102186.97;5033352;28;20025;-74
2022/07/18 05:21:17;;;;;;;10.65;5.90;;;;;;;16.10;69.19;102181.97;5016901;28;20026;-73
2022/07/18 05:23:45;;;;;;;10.80;5.38;;;;;;;16.12;69.49;102182.69;5017470;28;20025;-74
2022/07/18 05:26:11;;;;;;;11.70;5.80;;;;;;;16.22;68.98;102184.25;5017362;28;20022;-73
2022/07/18 05:28:36;;;;;;;14.00;5.07;;;;;;;16.42;68.16;102190.34;5033257;28;20026;-74
2022/07/18 05:31:01;;;;;;;15.70;5.35;;;;;;;16.37;67.76;102195.47;5016510;28;20109;-74
2022/07/18 05:33:27;;;;;;;10.27;5.43;;;;;;;16.52;67.28;102191.06;5016488;28;20112;-73
2022/07/18 05:35:52;;;;;;;13.35;6.20;;;;;;;16.45;67.79;102195.50;5016512;28;20030;-73
2022/07/18 05:38:18;;;;;;;10.52;5.43;;;;;;;16.67;67.43;102198.63;5016454;28;20025;-74
2022/07/18 05:40:43;;;;;;;12.82;4.97;;;;;;;16.69;67.13;102196.59;5016559;28;20032;-73
2022/07/18 05:43:08;;;;;;;8.98;4.60;;;;;;;16.61;67.29;102193.84;5016455;28;20025;-74
2022/07/18 05:45:53;;;;;;;19.50;6.53;;;;;;;16.70;66.77;102198.34;5034545;28;20022;-74
2022/07/18 05:48:19;;;;;;;16.02;5.47;;;;;;;16.88;66.51;102207.28;5032690;28;20036;-74
2022/07/18 05:50:44;;;;;;;16.75;4.97;;;;;;;16.92;66.28;102200.44;5016434;28;20022;-74
2022/07/18 05:53:11;;;;;;;17.50;6.28;;;;;;;16.91;66.21;102206.97;5016513;28;20083;-74
2022/07/18 05:55:37;;;;;;;19.58;5.60;;;;;;;16.86;66.11;102203.84;5016381;28;20136;-74
2022/07/18 05:58:02;;;;;;;22.05;5.57;;;;;;;16.87;66.05;102205.56;5033857;28;20100;-72
2022/07/18 06:00:27;;;;;;;20.75;5.53;;;;;;;16.79;66.60;102208.28;5016511;28;20033;-74
2022/07/18 06:02:53;;;;;;;14.27;5.22;;;;;;;16.88;66.09;102207.28;5032979;28;20025;-73
2022/07/18 06:05:18;;;;;;;12.05;6.00;;;;;;;17.12;65.23;102211.94;5015768;28;20033;-73
2022/07/18 06:07:43;;;;;;;20.67;5.40;;;;;;;17.27;64.94;102223.94;5016293;28;20040;-73
2022/07/18 06:10:09;;;;;;;18.10;6.07;;;;;;;17.38;64.61;102220.03;5033815;28;20125;-73
2022/07/18 06:12:35;;;;;;;13.20;5.30;;;;;;;17.30;64.31;102209.06;5016054;28;20026;-73
2022/07/18 06:15:00;;;;;;;25.38;6.43;;;;;;;17.28;64.64;102191.97;5032037;28;20049;-73
2022/07/18 06:17:28;;;;;;;13.90;5.07;;;;;;;17.51;64.07;102192.97;5033975;28;20017;-72
2022/07/18 06:19:55;;;;;;;24.35;5.40;;;;;;;17.69;63.43;102189.22;5033294;28;20030;-72
2022/07/18 06:22:21;;;;;;;25.20;5.60;;;;;;;17.95;62.79;102192.63;5015793;28;20018;-73
2022/07/18 06:24:47;;;;;;;26.40;5.05;;;;;;;18.02;62.39;102190.91;5033238;28;20030;-72
2022/07/18 06:27:12;;;;;;;11.68;5.47;;;;;;;18.06;61.44;102186.78;5033803;28;20116;-73
2022/07/18 06:29:37;;;;;;;14.52;4.90;;;;;;;18.54;60.67;102195.00;5033458;28;20064;-73
2022/07/18 06:32:03;;;;;;;13.70;5.45;;;;;;;18.27;61.22;102193.56;5015898;28;20041;-73
2022/07/18 06:34:28;;;;;;;15.05;5.85;;;;;;;18.27;61.11;102196.31;5033573;28;20090;-73
2022/07/18 06:36:54;;;;;;;16.65;6.22;;;;;;;18.17;60.38;102189.13;5015922;28;20030;-73
2022/07/18 06:39:19;;;;;;;9.75;5.30;;;;;;;18.15;60.94;102191.19;5015641;28;20150;-73
2022/07/18 06:41:44;;;;;;;13.95;6.25;;;;;;;17.85;61.24;102186.47;5033667;28;20047;-73
2022/07/18 06:44:10;;;;;;;16.80;6.47;;;;;;;18.09;60.25;102180.94;5015941;28;20040;-73
2022/07/18 06:46:36;;;;;;;15.00;6.35;;;;;;;18.23;60.70;102192.22;5032175;28;20061;-73
2022/07/18 06:49:02;;;;;;;13.00;5.68;;;;;;;18.23;60.49;102182.09;5015686;28;20029;-73
2022/07/18 06:51:28;;;;;;;16.52;6.22;;;;;;;18.35;60.36;102185.31;5032843;28;20144;-73
2022/07/18 06:53:53;;;;;;;13.63;5.75;;;;;;;18.49;59.97;102187.31;5032734;28;20034;-73
2022/07/18 06:56:19;;;;;;;18.40;5.97;;;;;;;18.47;59.72;102183.03;5014747;28;20017;-73
2022/07/18 06:58:48;;;;;;;19.40;5.40;;;;;;;18.49;60.07;102184.56;5014763;28;20072;-72
2022/07/18 07:01:14;;;;;;;15.90;5.50;;;;;;;18.63;59.59;102183.78;5014587;28;20013;-72
2022/07/18 07:03:40;;;;;;;15.10;5.85;;;;;;;18.94;59.38;102175.59;5031020;28;20029;-73
2022/07/18 07:06:05;;;;;;;15.90;6.38;;;;;;;18.95;58.78;102176.44;5032443;28;20063;-72
2022/07/18 07:08:31;;;;;;;15.63;5.82;;;;;;;18.74;59.56;102184.47;5014601;28;20056;-73
2022/07/18 07:10:56;;;;;;;22.58;6.15;;;;;;;19.08;58.92;102187.69;5014586;28;20029;-73
2022/07/18 07:13:21;;;;;;;18.48;5.35;;;;;;;19.24;57.97;102176.59;5014662;28;20033;-73
2022/07/18 07:15:47;;;;;;;18.77;5.85;;;;;;;19.24;58.00;102184.81;5014657;28;20017;-74
2022/07/18 07:18:12;;;;;;;13.38;5.80;;;;;;;19.47;57.52;102170.22;5014382;28;20030;-73
2022/07/18 07:20:38;;;;;;;17.98;5.75;;;;;;;19.56;57.12;102162.75;5014843;28;20024;-73
2022/07/18 07:23:07;;;;;;;12.13;5.40;;;;;;;19.79;56.76;102147.94;5014627;28;20031;-73
2022/07/18 07:25:32;;;;;;;19.42;6.30;;;;;;;19.56;56.10;102173.72;5014778;28;20037;-74
2022/07/18 07:27:57;;;;;;;15.52;5.63;;;;;;;19.87;55.74;102165.38;5032135;28;20021;-74
2022/07/18 07:30:23;;;;;;;15.27;5.03;;;;;;;20.12;54.52;102169.56;5014780;28;20068;-73
2022/07/18 07:32:50;;;;;;;16.17;6.53;;;;;;;20.42;53.44;102181.44;5013881;28;20076;-73
2022/07/18 07:35:16;;;;;;;11.57;6.07;;;;;;;20.69;52.37;102177.13;5014051;28;20391;-73
2022/07/18 07:37:44;;;;;;;18.25;6.43;;;;;;;21.02;52.45;102165.66;5031834;28;20033;-72
2022/07/18 07:40:11;;;;;;;14.88;5.65;;;;;;;21.33;51.87;102174.47;5014419;28;20053;-73
2022/07/18 07:42:36;;;;;;;13.70;7.10;;;;;;;20.97;51.51;102176.38;5014341;28;20031;-73
2022/07/18 07:45:03;;;;;;;12.65;7.03;;;;;;;21.05;51.75;102170.75;5032118;28;20037;-73
2022/07/18 07:47:28;;;;;;;18.30;6.57;;;;;;;21.39;51.51;102161.81;5014380;28;20033;-73
2022/07/18 07:49:55;;;;;;;14.77;6.63;;;;;;;21.31;50.59;102168.28;5014952;28;20032;-73
2022/07/18 07:52:20;;;;;;;7.53;5.45;;;;;;;21.63;50.54;102172.38;5031142;28;20025;-73
2022/07/18 07:54:46;;;;;;;12.38;6.07;;;;;;;21.98;49.53;102160.56;5014480;28;20017;-73
2022/07/18 07:57:11;;;;;;;14.95;6.75;;;;;;;22.35;48.35;102157.38;5033007;28;20033;-73
2022/07/18 07:59:37;;;;;;;9.07;6.10;;;;;;;22.65;47.45;102157.09;5014907;28;20483;-73
2022/07/18 08:02:03;;;;;;;20.55;6.20;;;;;;;22.52;47.29;102159.81;5032422;28;20053;-73
2022/07/18 08:04:29;;;;;;;22.08;6.97;;;;;;;22.46;47.42;102154.06;5031980;28;20116;-73
2022/07/18 08:06:54;;;;;;;12.75;7.35;;;;;;;22.41;46.60;102155.72;5031771;28;20030;-73
2022/07/18 08:09:20;;;;;;;11.98;7.38;;;;;;;22.73;45.92;102154.16;5015357;28;20033;-74
2022/07/18 08:11:45;;;;;;;11.85;6.90;;;;;;;22.63;46.57;102148.19;5015538;28;20038;-73
2022/07/18 08:14:11;;;;;;;15.50;7.35;;;;;;;22.51;45.47;102149.81;5032451;28;20080;-74
2022/07/18 08:16:36;;;;;;;17.20;7.32;;;;;;;22.53;45.92;102142.19;5015408;28;20120;-76
2022/07/18 08:19:02;;;;;;;17.17;7.65;;;;;;;22.84;46.49;102150.78;5015342;28;20144;-73
2022/07/18 08:21:27;;;;;;;18.52;7.10;;;;;;;23.30;45.43;102144.50;5014078;28;20024;-74
2022/07/18 08:23:53;;;;;;;10.13;6.53;;;;;;;23.88;44.15;102141.97;5014816;28;20088;-73
2022/07/18 08:26:18;;;;;;;11.45;6.55;;;;;;;24.29;43.15;102143.53;5031908;28;20024;-72
2022/07/18 08:28:43;;;;;;;11.48;7.50;;;;;;;23.65;43.68;102130.50;5032291;28;20021;-74
2022/07/18 08:31:09;;;;;;;9.60;6.60;;;;;;;23.76;43.58;102132.63;5014575;28;20080;-73
2022/07/18 08:33:35;;;;;;;15.85;6.80;;;;;;;23.77;43.40;102134.31;5026074;28;20030;-73
2022/07/18 08:36:00;;;;;;;14.20;6.80;;;;;;;23.64;44.18;102121.34;5012148;28;20491;-74
2022/07/18 08:38:25;;;;;;;11.40;6.65;;;;;;;23.96;42.64;102127.88;5010601;28;20022;-72
2022/07/18 08:40:53;;;;;;;15.02;7.10;;;;;;;23.48;43.04;102125.38;5012348;28;20018;-73
2022/07/18 08:43:19;;;;;;;13.77;6.45;;;;;;;23.00;44.57;102120.03;5011851;28;20112;-73
2022/07/18 08:45:45;;;;;;;14.30;6.88;;;;;;;23.46;44.16;102102.59;5016282;28;20033;-73
2022/07/18 08:48:17;;;;;;;12.50;6.40;;;;;;;23.77;42.96;102101.13;5015953;28;20030;-74
2022/07/18 08:50:47;;;;;;;13.18;6.68;;;;;;;23.93;43.93;102097.91;5015214;28;20099;-73
2022/07/18 08:53:14;;;;;;;14.98;6.75;;;;;;;23.51;44.33;102097.28;4998299;28;20134;-73
2022/07/18 08:55:39;;;;;;;12.00;6.50;;;;;;;23.54;43.27;102094.13;4998957;28;20029;-73
2022/07/18 08:58:05;;;;;;;13.07;6.40;;;;;;;23.86;43.03;102099.81;4998624;28;20030;-74
2022/07/18 09:00:30;;;;;;;18.40;6.30;;;;;;;23.99;42.80;102099.75;4998190;28;20022;-73
2022/07/18 09:03:00;;;;;;;16.40;8.15;;;;;;;24.09;41.94;102099.31;5014752;28;20049;-73
2022/07/18 09:05:25;;;;;;;11.57;6.32;;;;;;;24.62;40.42;102105.50;5014564;28;20033;-74
2022/07/18 09:07:51;;;;;;;11.40;6.30;;;;;;;24.95;39.75;102092.50;5014914;28;20149;-74
2022/07/18 09:10:16;;;;;;;24.75;7.88;;;;;;;24.63;41.55;102101.66;5015981;28;20087;-74
2022/07/18 09:12:56;;;;;;;16.02;6.20;;;;;;;24.48;41.29;102095.56;5018838;28;20037;-74
2022/07/18 09:15:21;;;;;;;10.80;6.05;;;;;;;24.61;41.65;102098.28;5035425;28;20022;-74
2022/07/18 09:17:50;;;;;;;14.73;6.35;;;;;;;24.84;41.11;102091.28;5034894;28;20029;-74
2022/07/18 09:20:16;;;;;;;15.25;6.80;;;;;;;25.46;39.74;102089.56;5035090;28;20031;-75
2022/07/18 09:22:49;;;;;;;11.65;6.50;;;;;;;25.15;38.86;102099.63;5017261;28;20026;-75
2022/07/18 09:25:21;;;;;;;12.27;7.07;;;;;;;24.99;39.65;102100.16;5018024;28;20532;-75
2022/07/18 09:27:48;;;;;;;12.27;6.80;;;;;;;25.13;38.40;102099.00;5017778;28;20076;-74
2022/07/18 09:30:29;;;;;;;9.75;5.93;;;;;;;25.04;39.25;102100.38;5035937;28;20030;-75
2022/07/18 09:33:15;;;;;;;13.18;7.20;;;;;;;24.94;39.52;102108.28;5035906;28;20036;-75
2022/07/18 09:35:46;;;;;;;9.75;6.03;;;;;;;25.03;39.42;102106.94;5035551;28;20106;-74
2022/07/18 09:38:17;;;;;;;8.48;6.00;;;;;;;25.58;39.90;102112.69;5035273;28;20033;-74
2022/07/18 09:40:44;;;;;;;11.95;7.25;;;;;;;25.79;37.68;102121.69;5017317;28;20507;-75
2022/07/18 09:43:13;;;;;;;13.57;7.07;;;;;;;25.96;36.76;102117.25;5036012;28;20017;-76
2022/07/18 09:45:47;;;;;;;13.75;7.18;;;;;;;25.64;37.65;102111.78;5016735;28;20043;-73
2022/07/18 09:48:15;;;;;;;10.75;6.78;;;;;;;25.71;37.53;102125.59;5004568;28;20033;-73
2022/07/18 09:50:51;;;;;;;11.35;6.53;;;;;;;26.05;38.19;102115.84;5013947;28;20021;-73
2022/07/18 09:53:19;;;;;;;9.90;5.72;;;;;;;25.98;38.02;102120.63;5012711;28;20022;-73
2022/07/18 09:55:56;;;;;;;10.73;6.85;;;;;;;25.52;39.03;102110.84;5027760;28;20021;-74
2022/07/18 09:58:26;;;;;;;8.18;5.93;;;;;;;26.16;38.41;102123.44;5011239;28;20044;-74
2022/07/18 10:00:53;;;;;;;14.80;6.57;;;;;;;26.15;38.02;102124.50;5012329;28;20014;-73
2022/07/18 10:03:20;;;;;;;14.32;6.15;;;;;;;26.46;37.75;102122.66;5029436;28;20392;-73
2022/07/18 10:05:47;;;;;;;12.73;5.95;;;;;;;27.07;36.79;102123.53;4998664;28;20022;-74
2022/07/18 10:08:15;;;;;;;12.63;6.30;;;;;;;26.67;35.38;102130.50;4993573;28;20089;-73
2022/07/18 10:10:42;;;;;;;18.27;6.85;;;;;;;26.20;36.37;102130.19;5010914;28;20484;-72
2022/07/18 10:13:09;;;;;;;16.05;5.70;;;;;;;26.16;36.62;102123.44;5008473;28;20026;-73
2022/07/18 10:15:37;;;;;;;14.05;5.88;;;;;;;26.38;37.72;102120.16;5010388;28;20025;-73
2022/07/18 10:18:05;;;;;;;11.40;5.75;;;;;;;26.67;37.09;102124.94;5009211;28;20037;-73
2022/07/18 10:20:39;;;;;;;10.90;5.85;;;;;;;26.52;36.10;102117.00;5009257;28;20025;-74
2022/07/18 10:23:13;;;;;;;9.80;5.40;;;;;;;26.83;36.07;102105.91;4991524;28;20025;-72
2022/07/18 10:25:39;;;;;;;11.90;5.85;;;;;;;27.56;35.69;102094.44;5009754;28;20034;-73
2022/07/18 10:28:08;;;;;;;18.83;5.88;;;;;;;28.08;34.28;102097.31;4992780;28;20029;-72
2022/07/18 10:30:36;;;;;;;9.43;5.30;;;;;;;27.76;34.80;102100.50;5010857;28;20037;-72
2022/07/18 10:33:03;;;;;;;11.23;5.22;;;;;;;27.29;36.37;102100.47;5012344;28;20030;-73
2022/07/18 10:36:03;;;;;;;12.27;5.80;;;;;;;27.54;35.78;102085.50;5010597;28;20030;-74
2022/07/18 10:38:28;;;;;;;11.52;5.47;;;;;;;27.93;35.31;102060.78;4962223;28;20034;-72
2022/07/18 10:41:02;;;;;;;10.82;6.63;;;;;;;27.66;34.96;102066.84;5010193;28;20022;-73
2022/07/18 10:43:31;;;;;;;14.23;5.45;;;;;;;28.24;35.08;102068.72;5010323;28;20026;-74
2022/07/18 10:45:57;;;;;;;17.42;6.15;;;;;;;27.84;34.38;102075.09;5010994;28;20036;-72
2022/07/18 10:48:32;;;;;;;10.90;5.47;;;;;;;28.04;34.53;102079.41;5011099;28;20026;-73
2022/07/18 10:51:08;;;;;;;12.43;5.70;;;;;;;26.72;37.14;102100.06;4993116;28;20125;-73
2022/07/18 10:53:52;;;;;;;11.52;5.60;;;;;;;28.07;35.33;102078.91;5009080;28;20108;-74
2022/07/18 10:56:18;;;;;;;13.23;5.32;;;;;;;28.42;34.44;102076.03;5011592;28;20021;-74
2022/07/18 10:58:44;;;;;;;14.43;5.60;;;;;;;28.53;34.88;102077.09;4993603;28;20030;-74
2022/07/18 11:01:16;;;;;;;9.82;5.22;;;;;;;29.36;33.86;102076.38;5012510;28;20076;-74
2022/07/18 11:03:41;;;;;;;15.65;5.60;;;;;;;28.71;33.51;102074.09;5011251;28;20021;-73
2022/07/18 11:06:07;;;;;;;11.38;5.50;;;;;;;27.64;35.59;102057.03;4989687;28;20029;-72
2022/07/18 11:08:33;;;;;;;14.20;6.60;;;;;;;27.74;35.51;102057.31;4992132;28;20026;-73
2022/07/18 11:11:01;;;;;;;22.27;5.68;;;;;;;27.05;36.60;102059.81;5007334;28;20048;-73
2022/07/18 11:13:33;;;;;;;13.18;6.13;;;;;;;27.16;36.48;102056.19;5008491;28;20036;-73
2022/07/18 11:16:09;;;;;;;;;;;;;;;27.65;35.50;102054.03;5009829;28;20030;-74
2022/07/18 11:18:40;;;;;;;15.48;5.07;;;;;;;27.59;34.93;102044.72;4993465;28;19931;-74